createdAt,value
2023-05-14T00:01:33.463Z,12.40
2023-05-14T00:04:01.384Z,12.40
2023-05-14T00:06:29.541Z,12.30
2023-05-14T00:08:57.573Z,12.30
2023-05-14T00:11:25.424Z,12.28
2023-05-14T00:13:53.370Z,12.20
2023-05-14T00:16:21.242Z,12.20
2023-05-14T00:18:49.214Z,12.20
2023-05-14T00:21:17.403Z,12.20
2023-05-14T00:23:45.555Z,12.30
2023-05-14T00:26:13.720Z,12.20
2023-05-14T00:28:41.546Z,12.10
2023-05-14T00:31:09.364Z,12.04
2023-05-14T00:33:37.272Z,12.00
2023-05-14T00:36:05.739Z,12.00
2023-05-14T00:38:33.672Z,12.00
2023-05-14T00:41:01.499Z,12.00
2023-05-14T00:43:29.416Z,12.00
2023-05-14T00:45:57.574Z,12.00
2023-05-14T00:48:26.239Z,11.92
2023-05-14T00:50:54.782Z,11.94
2023-05-14T00:53:22.825Z,11.90
2023-05-14T00:55:51.025Z,11.90
2023-05-14T00:58:20.026Z,11.80
2023-05-14T01:00:48.507Z,11.80
2023-05-14T01:03:16.642Z,11.76
2023-05-14T01:06:08.583Z,11.70
2023-05-14T01:09:22.977Z,11.70
2023-05-14T01:12:17.457Z,11.68
2023-05-14T01:15:00.883Z,11.62
2023-05-14T01:17:34.005Z,11.70
2023-05-14T01:20:03.665Z,11.60
2023-05-14T01:22:31.662Z,11.60
2023-05-14T01:24:59.415Z,11.60
2023-05-14T01:27:42.157Z,11.60
2023-05-14T01:30:37.528Z,11.60
2023-05-14T01:33:14.345Z,11.60
2023-05-14T01:35:44.596Z,11.60
2023-05-14T01:38:17.230Z,11.68
2023-05-14T01:40:47.073Z,11.70
2023-05-14T01:43:17.028Z,11.80
2023-05-14T01:45:45.054Z,11.74
2023-05-14T01:48:12.995Z,11.70
2023-05-14T01:50:41.218Z,11.74
2023-05-14T01:53:08.987Z,11.70
2023-05-14T01:55:36.861Z,11.70
2023-05-14T01:58:04.711Z,11.70
2023-05-14T02:00:32.508Z,11.70
2023-05-14T02:03:00.577Z,11.70
2023-05-14T02:05:28.537Z,11.70
2023-05-14T02:07:56.318Z,11.70
2023-05-14T02:10:24.294Z,11.60
2023-05-14T02:12:52.359Z,11.58
2023-05-14T02:15:20.168Z,11.52
2023-05-14T02:17:48.055Z,11.50
2023-05-14T02:20:16.138Z,11.50
2023-05-14T02:22:45.807Z,11.50
2023-05-14T02:25:13.641Z,11.42
2023-05-14T02:27:41.407Z,11.40
2023-05-14T02:30:10.775Z,11.40
2023-05-14T02:32:39.010Z,11.40
2023-05-14T02:35:09.254Z,11.30
2023-05-14T02:37:37.001Z,11.20
2023-05-14T02:40:05.444Z,11.20
2023-05-14T02:42:33.263Z,11.20
2023-05-14T02:45:01.245Z,11.20
2023-05-14T02:47:29.018Z,11.10
2023-05-14T02:49:56.880Z,11.10
2023-05-14T02:52:24.670Z,11.04
2023-05-14T02:54:52.376Z,11.00
2023-05-14T02:57:21.356Z,10.98
2023-05-14T02:59:49.235Z,10.90
2023-05-14T03:02:17.661Z,10.90
2023-05-14T03:04:46.908Z,10.80
2023-05-14T03:07:14.641Z,10.80
2023-05-14T03:09:42.382Z,10.70
2023-05-14T03:12:10.220Z,10.70
2023-05-14T03:14:38.004Z,10.70
2023-05-14T03:17:06.142Z,10.62
2023-05-14T03:19:33.904Z,10.60
2023-05-14T03:22:01.864Z,10.60
2023-05-14T03:24:29.710Z,10.60
2023-05-14T03:26:57.488Z,10.70
2023-05-14T03:29:25.221Z,10.78
2023-05-14T03:31:54.452Z,10.90
2023-05-14T03:34:22.392Z,11.10
2023-05-14T03:36:50.491Z,11.26
2023-05-14T03:39:20.014Z,11.50
2023-05-14T03:41:48.547Z,11.82
2023-05-14T03:44:16.625Z,12.20
2023-05-14T03:46:44.550Z,12.52
2023-05-14T03:49:12.350Z,12.74
2023-05-14T03:51:40.966Z,13.04
2023-05-14T03:54:09.667Z,13.30
2023-05-14T03:56:37.487Z,13.60
2023-05-14T03:59:05.401Z,13.80
2023-05-14T04:01:35.577Z,13.90
2023-05-14T04:04:03.656Z,14.00
2023-05-14T04:06:34.048Z,14.00
2023-05-14T04:09:02.513Z,14.10
2023-05-14T04:11:30.384Z,14.24
2023-05-14T04:13:58.162Z,14.46
2023-05-14T04:16:26.078Z,14.60
2023-05-14T04:18:53.999Z,14.70
2023-05-14T04:21:21.806Z,14.70
2023-05-14T04:23:50.919Z,14.80
2023-05-14T04:26:18.701Z,14.88
2023-05-14T04:28:46.431Z,14.94
2023-05-14T04:31:15.681Z,15.06
2023-05-14T04:33:43.471Z,15.20
2023-05-14T04:36:11.312Z,15.40
2023-05-14T04:38:39.073Z,15.50
2023-05-14T04:41:07.305Z,15.70
2023-05-14T04:43:35.118Z,15.90
2023-05-14T04:46:03.318Z,16.10
2023-05-14T04:48:31.300Z,16.40
2023-05-14T04:50:59.165Z,16.66
2023-05-14T04:53:27.123Z,16.96
2023-05-14T04:55:55.328Z,17.20
2023-05-14T04:58:24.253Z,17.58
2023-05-14T05:00:52.157Z,17.90
2023-05-14T05:03:20.205Z,18.20
2023-05-14T05:05:48.163Z,18.50
2023-05-14T05:08:16.028Z,18.60
2023-05-14T05:10:43.808Z,18.60
2023-05-14T05:13:11.745Z,18.70
2023-05-14T05:15:39.570Z,19.12
2023-05-14T05:18:07.465Z,19.64
2023-05-14T05:20:35.380Z,19.82
2023-05-14T05:23:03.225Z,20.20
2023-05-14T05:25:32.513Z,20.50
2023-05-14T05:28:00.400Z,20.70
2023-05-14T05:30:28.410Z,20.70
2023-05-14T05:32:57.779Z,20.50
2023-05-14T05:35:25.852Z,20.60
2023-05-14T05:37:53.648Z,20.72
2023-05-14T05:40:21.720Z,20.82
2023-05-14T05:42:49.743Z,20.90
2023-05-14T05:45:17.512Z,20.90
2023-05-14T05:47:45.941Z,20.80
2023-05-14T05:50:15.070Z,20.70
2023-05-14T05:52:43.140Z,20.60
2023-05-14T05:55:11.197Z,20.60
2023-05-14T05:57:38.975Z,20.60
2023-05-14T06:00:13.275Z,20.60
2023-05-14T06:02:42.015Z,20.60
2023-05-14T06:05:14.360Z,20.50
2023-05-14T06:07:42.540Z,20.50
2023-05-14T06:10:11.166Z,20.40
2023-05-14T06:12:39.152Z,20.40
2023-05-14T06:15:07.756Z,20.30
2023-05-14T06:17:35.526Z,20.20
2023-05-14T06:20:05.667Z,20.10
2023-05-14T06:22:34.209Z,20.10
2023-05-14T06:25:02.193Z,20.10
2023-05-14T06:27:30.540Z,20.20
2023-05-14T06:29:58.433Z,20.22
2023-05-14T06:32:26.290Z,20.30
2023-05-14T06:34:54.102Z,20.30
2023-05-14T06:37:21.908Z,20.30
2023-05-14T06:39:52.654Z,20.30
2023-05-14T06:42:20.556Z,20.30
2023-05-14T06:44:48.436Z,20.30
2023-05-14T06:47:16.254Z,20.42
2023-05-14T06:49:44.214Z,20.60
2023-05-14T06:52:12.029Z,20.70
2023-05-14T06:54:39.766Z,20.70
2023-05-14T06:57:07.574Z,20.70
2023-05-14T06:59:36.059Z,20.84
2023-05-14T07:02:03.907Z,20.90
2023-05-14T07:04:32.170Z,20.90
2023-05-14T07:06:59.963Z,21.00
2023-05-14T07:09:27.825Z,21.10
2023-05-14T07:11:55.644Z,21.20
2023-05-14T07:14:23.440Z,21.20
2023-05-14T07:16:51.302Z,21.30
2023-05-14T07:19:19.128Z,21.40
2023-05-14T07:21:46.968Z,21.50
2023-05-14T07:24:14.698Z,21.60
2023-05-14T07:26:42.531Z,21.70
2023-05-14T07:29:10.455Z,21.80
2023-05-14T07:31:38.330Z,21.90
2023-05-14T07:34:06.295Z,21.90
2023-05-14T07:36:34.413Z,21.98
2023-05-14T07:39:02.341Z,22.10
2023-05-14T07:41:30.109Z,22.20
2023-05-14T07:43:58.552Z,22.30
2023-05-14T07:46:26.816Z,22.40
2023-05-14T07:48:54.672Z,22.52
2023-05-14T07:51:23.198Z,22.64
2023-05-14T07:53:51.201Z,22.80
2023-05-14T07:56:19.084Z,22.80
2023-05-14T07:58:47.077Z,22.90
2023-05-14T08:01:15.165Z,23.00
2023-05-14T08:03:43.147Z,23.10
2023-05-14T08:06:11.925Z,23.20
2023-05-14T08:08:39.947Z,23.40
2023-05-14T08:11:07.823Z,23.34
2023-05-14T08:13:35.770Z,23.40
2023-05-14T08:16:03.799Z,23.50
2023-05-14T08:18:31.792Z,23.60
2023-05-14T08:21:01.036Z,23.70
2023-05-14T08:23:30.155Z,23.80
2023-05-14T08:25:59.393Z,23.80
2023-05-14T08:28:27.187Z,23.90
2023-05-14T08:30:55.120Z,23.80
2023-05-14T08:33:23.466Z,23.90
2023-05-14T08:35:54.867Z,23.90
2023-05-14T08:38:22.726Z,23.92
2023-05-14T08:40:58.849Z,24.00
2023-05-14T08:43:56.973Z,24.00
2023-05-14T08:46:26.828Z,24.10
2023-05-14T08:49:04.347Z,24.14
2023-05-14T08:51:36.761Z,24.28
2023-05-14T08:54:06.004Z,24.38
2023-05-14T08:56:33.926Z,24.40
2023-05-14T08:59:01.716Z,24.50
2023-05-14T09:01:30.064Z,24.44
2023-05-14T09:04:01.607Z,24.40
2023-05-14T09:06:30.917Z,24.50
2023-05-14T09:08:58.832Z,24.50
2023-05-14T09:11:26.745Z,24.66
2023-05-14T09:13:54.578Z,24.68
2023-05-14T09:16:25.832Z,24.80
2023-05-14T09:18:55.267Z,24.92
2023-05-14T09:21:23.644Z,24.90
2023-05-14T09:23:57.041Z,24.90
2023-05-14T09:26:26.646Z,25.10
2023-05-14T09:28:56.621Z,25.20
2023-05-14T09:31:24.722Z,25.30
2023-05-14T09:33:53.268Z,25.42
2023-05-14T09:36:21.336Z,25.58
2023-05-14T09:38:49.136Z,25.70
2023-05-14T09:41:17.049Z,25.70
2023-05-14T09:43:45.099Z,25.74
2023-05-14T09:46:13.304Z,25.70
2023-05-14T09:48:41.257Z,25.66
2023-05-14T09:51:11.353Z,25.80
2023-05-14T09:53:41.384Z,25.80
2023-05-14T09:56:09.364Z,25.88
2023-05-14T09:58:37.311Z,26.00
2023-05-14T10:01:06.877Z,26.00
2023-05-14T10:03:36.121Z,26.00
2023-05-14T10:06:06.711Z,26.00
2023-05-14T10:08:36.479Z,26.06
2023-05-14T10:11:17.907Z,26.00
2023-05-14T10:13:58.196Z,26.06
2023-05-14T10:16:34.179Z,26.10
2023-05-14T10:19:10.940Z,26.00
2023-05-14T10:21:49.866Z,26.10
2023-05-14T10:24:20.212Z,26.10
2023-05-14T10:26:49.152Z,26.18
2023-05-14T10:29:16.952Z,26.20
2023-05-14T10:31:55.591Z,26.30
2023-05-14T10:34:46.499Z,26.60
2023-05-14T10:37:26.058Z,26.50
2023-05-14T10:39:58.877Z,26.20
2023-05-14T10:42:29.153Z,26.16
2023-05-14T10:45:01.949Z,25.80
2023-05-14T10:47:29.995Z,25.70
2023-05-14T10:50:01.920Z,25.70
2023-05-14T10:52:31.126Z,25.80
2023-05-14T10:55:07.849Z,25.46
2023-05-14T10:57:40.062Z,24.78
2023-05-14T11:00:09.278Z,24.24
2023-05-14T11:02:40.599Z,23.80
2023-05-14T11:05:15.732Z,23.60
2023-05-14T11:07:47.298Z,23.60
2023-05-14T11:10:18.627Z,23.30
2023-05-14T11:12:50.081Z,23.04
2023-05-14T11:15:23.463Z,22.90
2023-05-14T11:17:53.627Z,22.68
2023-05-14T11:20:21.971Z,22.40
2023-05-14T11:22:51.857Z,22.20
2023-05-14T11:25:20.624Z,22.10
2023-05-14T11:27:50.750Z,22.20
2023-05-14T11:30:20.723Z,22.56
2023-05-14T11:32:50.661Z,22.90
2023-05-14T11:35:18.961Z,22.90
2023-05-14T11:37:54.796Z,22.90
2023-05-14T11:40:22.951Z,22.80
2023-05-14T11:42:54.001Z,22.90
2023-05-14T11:45:27.522Z,22.90
2023-05-14T11:47:56.187Z,23.08
2023-05-14T11:50:24.295Z,23.30
2023-05-14T11:52:57.494Z,23.50
2023-05-14T11:55:25.596Z,23.40
2023-05-14T11:57:54.474Z,23.40
2023-05-14T12:00:24.158Z,23.50
2023-05-14T12:02:52.569Z,23.50
2023-05-14T12:05:20.840Z,23.32
2023-05-14T12:07:48.962Z,23.20
2023-05-14T12:10:16.789Z,22.94
2023-05-14T12:12:47.828Z,22.58
2023-05-14T12:15:21.883Z,22.22
2023-05-14T12:17:52.077Z,21.92
2023-05-14T12:20:20.230Z,21.50
2023-05-14T12:22:48.137Z,21.20
2023-05-14T12:25:16.054Z,21.30
2023-05-14T12:27:45.625Z,21.50
2023-05-14T12:32:46.178Z,21.80
2023-05-14T12:35:17.041Z,22.02
2023-05-14T12:37:45.024Z,22.20
2023-05-14T12:40:13.274Z,22.40
2023-05-14T12:42:41.157Z,22.60
2023-05-14T12:45:09.338Z,22.42
2023-05-14T12:47:37.816Z,22.26
2023-05-14T12:50:07.837Z,22.10
2023-05-14T12:52:39.139Z,22.00
2023-05-14T12:55:09.765Z,21.90
2023-05-14T12:57:39.707Z,21.88
2023-05-14T13:00:14.103Z,21.90
2023-05-14T13:02:43.664Z,21.90
2023-05-14T13:05:12.959Z,22.10
2023-05-14T13:07:41.237Z,22.10
2023-05-14T13:10:10.063Z,22.36
2023-05-14T13:12:39.011Z,22.50
2023-05-14T13:15:07.926Z,22.60
2023-05-14T13:17:37.021Z,22.60
2023-05-14T13:20:05.501Z,22.60
2023-05-14T13:22:33.728Z,22.50
2023-05-14T13:25:01.701Z,22.38
2023-05-14T13:27:30.537Z,22.10
2023-05-14T13:29:58.633Z,21.80
2023-05-14T13:32:26.528Z,21.70
2023-05-14T13:34:54.338Z,21.70
2023-05-14T13:37:22.422Z,21.90
2023-05-14T13:39:51.432Z,21.60
2023-05-14T13:42:19.584Z,21.62
2023-05-14T13:44:47.471Z,21.92
2023-05-14T13:47:15.383Z,22.10
2023-05-14T13:49:43.279Z,22.20
2023-05-14T13:52:11.116Z,22.40
2023-05-14T13:54:38.885Z,22.60
2023-05-14T13:57:06.985Z,22.50
2023-05-14T13:59:35.761Z,22.30
2023-05-14T14:02:03.810Z,22.10
2023-05-14T14:04:32.030Z,22.00
2023-05-14T14:07:00.258Z,21.80
2023-05-14T14:09:28.069Z,21.60
2023-05-14T14:11:56.014Z,21.50
2023-05-14T14:14:23.833Z,21.40
2023-05-14T14:16:51.710Z,21.40
2023-05-14T14:19:19.647Z,21.50
2023-05-14T14:21:47.837Z,21.50
2023-05-14T14:24:15.693Z,21.60
2023-05-14T14:26:43.473Z,21.60
2023-05-14T14:29:11.417Z,21.70
2023-05-14T14:31:39.381Z,21.70
2023-05-14T14:34:07.236Z,21.70
2023-05-14T14:36:35.115Z,21.70
2023-05-14T14:39:03.157Z,21.60
2023-05-14T14:41:31.100Z,21.50
2023-05-14T14:43:59.200Z,21.42
2023-05-14T14:46:27.190Z,21.40
2023-05-14T14:48:55.288Z,21.40
2023-05-14T14:51:23.255Z,21.42
2023-05-14T14:53:51.114Z,21.50
2023-05-14T14:56:19.355Z,21.60
2023-05-14T14:58:47.272Z,21.64
2023-05-14T15:01:15.244Z,21.70
2023-05-14T15:03:45.755Z,21.70
2023-05-14T15:06:13.740Z,21.60
2023-05-14T15:08:41.990Z,21.50
2023-05-14T15:11:09.900Z,21.40
2023-05-14T15:13:37.723Z,21.40
2023-05-14T15:16:05.752Z,21.38
2023-05-14T15:18:33.799Z,21.30
2023-05-14T15:21:01.857Z,21.30
2023-05-14T15:23:29.730Z,21.30
2023-05-14T15:25:57.593Z,21.34
2023-05-14T15:28:25.716Z,21.40
2023-05-14T15:30:53.580Z,21.30
2023-05-14T15:33:21.516Z,21.30
2023-05-14T15:35:49.386Z,21.30
2023-05-14T15:38:17.237Z,21.32
2023-05-14T15:40:47.992Z,21.40
2023-05-14T15:43:15.953Z,21.40
2023-05-14T15:45:45.837Z,21.40
2023-05-14T15:48:13.673Z,21.40
2023-05-14T15:50:42.497Z,21.40
2023-05-14T15:53:10.398Z,21.30
2023-05-14T15:55:38.293Z,21.30
2023-05-14T15:58:06.688Z,21.30
2023-05-14T16:00:34.641Z,21.20
2023-05-14T16:03:02.438Z,21.20
2023-05-14T16:05:30.630Z,21.12
2023-05-14T16:07:59.084Z,21.10
2023-05-14T16:10:27.127Z,21.04
2023-05-14T16:12:55.103Z,21.00
2023-05-14T16:15:22.851Z,20.90
2023-05-14T16:17:50.880Z,20.90
2023-05-14T16:20:18.849Z,20.90
2023-05-14T16:22:46.918Z,21.00
2023-05-14T16:25:14.992Z,21.00
2023-05-14T16:27:43.270Z,21.00
2023-05-14T16:30:11.725Z,21.10
2023-05-14T16:32:42.011Z,21.48
2023-05-14T16:35:10.235Z,21.70
2023-05-14T16:37:38.105Z,22.00
2023-05-14T16:40:07.645Z,22.10
2023-05-14T16:42:35.470Z,21.90
2023-05-14T16:45:04.200Z,21.80
2023-05-14T16:47:32.236Z,21.60
2023-05-14T16:50:00.422Z,21.40
2023-05-14T16:52:28.312Z,21.22
2023-05-14T16:54:56.813Z,21.10
2023-05-14T16:57:26.822Z,21.00
2023-05-14T16:59:54.783Z,20.90
2023-05-14T17:02:22.609Z,20.80
2023-05-14T17:04:50.685Z,20.70
2023-05-14T17:07:18.826Z,20.60
2023-05-14T17:09:46.699Z,20.50
2023-05-14T17:12:14.812Z,20.40
2023-05-14T17:14:43.008Z,20.30
2023-05-14T17:17:11.162Z,20.20
2023-05-14T17:19:39.025Z,20.10
2023-05-14T17:22:07.606Z,20.10
2023-05-14T17:24:36.639Z,20.00
2023-05-14T17:27:07.987Z,20.00
2023-05-14T17:29:35.826Z,19.98
2023-05-14T17:32:04.742Z,19.90
2023-05-14T17:34:32.989Z,19.80
2023-05-14T17:37:01.206Z,19.80
2023-05-14T17:39:29.331Z,19.70
2023-05-14T17:41:57.289Z,19.78
2023-05-14T17:44:25.232Z,19.70
2023-05-14T17:46:53.148Z,19.70
2023-05-14T17:49:20.962Z,19.66
2023-05-14T17:51:49.049Z,19.60
2023-05-14T17:54:16.943Z,19.54
2023-05-14T17:56:45.360Z,19.50
2023-05-14T17:59:15.855Z,19.40
2023-05-14T18:01:44.498Z,19.40
2023-05-14T18:04:12.682Z,19.40
2023-05-14T18:06:42.500Z,19.30
2023-05-14T18:09:10.840Z,19.20
2023-05-14T18:11:38.795Z,19.06
2023-05-14T18:14:07.167Z,19.00
2023-05-14T18:16:37.259Z,18.92
2023-05-14T18:19:05.786Z,18.90
2023-05-14T18:21:33.947Z,18.80
2023-05-14T18:24:04.703Z,18.76
2023-05-14T18:26:35.633Z,18.70
2023-05-14T18:29:03.912Z,18.60
2023-05-14T18:31:32.011Z,18.50
2023-05-14T18:34:02.970Z,18.50
2023-05-14T18:36:30.991Z,18.40
2023-05-14T18:38:59.394Z,18.34
2023-05-14T18:41:27.797Z,18.30
2023-05-14T18:43:56.071Z,18.20
2023-05-14T18:46:27.340Z,18.10
2023-05-14T18:48:58.827Z,18.00
2023-05-14T18:51:27.044Z,17.94
2023-05-14T18:53:54.895Z,17.90
2023-05-14T18:56:24.023Z,17.80
2023-05-14T18:58:53.828Z,17.70
2023-05-14T19:01:24.698Z,17.60
2023-05-14T19:03:53.510Z,17.50
2023-05-14T19:06:21.434Z,17.40
2023-05-14T19:08:49.367Z,17.30
2023-05-14T19:11:18.252Z,17.24
2023-05-14T19:13:47.049Z,17.20
2023-05-14T19:16:15.528Z,17.10
2023-05-14T19:18:44.273Z,17.00
2023-05-14T19:21:12.291Z,16.90
2023-05-14T19:23:40.361Z,16.80
2023-05-14T19:26:08.749Z,16.70
2023-05-14T19:28:39.104Z,16.60
2023-05-14T19:31:07.448Z,16.60
2023-05-14T19:33:35.369Z,16.50
2023-05-14T19:36:05.071Z,16.42
2023-05-14T19:38:33.081Z,16.40
2023-05-14T19:41:00.913Z,16.30
2023-05-14T19:43:28.825Z,16.20
2023-05-14T19:45:57.488Z,16.20
2023-05-14T19:48:25.988Z,16.10
2023-05-14T19:50:53.942Z,16.10
2023-05-14T19:53:21.825Z,16.10
2023-05-14T19:55:50.115Z,16.08
2023-05-14T19:58:18.150Z,16.00
2023-05-14T20:00:47.441Z,15.92
2023-05-14T20:03:15.979Z,15.84
2023-05-14T20:05:49.150Z,15.80
2023-05-14T20:08:19.230Z,15.80
2023-05-14T20:10:48.770Z,15.80
2023-05-14T20:13:16.743Z,15.80
2023-05-14T20:15:45.444Z,15.74
2023-05-14T20:18:13.569Z,15.80
2023-05-14T20:20:42.861Z,15.80
2023-05-14T20:23:10.904Z,15.70
2023-05-14T20:25:39.097Z,15.60
2023-05-14T20:28:07.240Z,15.60
2023-05-14T20:30:35.359Z,15.60
2023-05-14T20:33:04.192Z,15.60
2023-05-14T20:35:33.144Z,15.50
2023-05-14T20:38:02.282Z,15.50
2023-05-14T20:40:31.199Z,15.50
2023-05-14T20:42:59.108Z,15.50
2023-05-14T20:45:27.378Z,15.50
2023-05-14T20:47:56.109Z,15.50
2023-05-14T20:50:27.114Z,15.50
2023-05-14T20:52:55.384Z,15.50
2023-05-14T20:55:23.515Z,15.40
2023-05-14T20:57:51.721Z,15.40
2023-05-14T21:00:20.025Z,15.40
2023-05-14T21:02:49.432Z,15.40
2023-05-14T21:05:18.081Z,15.30
2023-05-14T21:07:46.138Z,15.20
2023-05-14T21:10:14.076Z,15.10
2023-05-14T21:12:42.816Z,15.00
2023-05-14T21:15:12.435Z,15.00
2023-05-14T21:17:40.801Z,15.00
2023-05-14T21:20:09.325Z,14.90
2023-05-14T21:22:37.079Z,14.90
2023-05-14T21:25:05.590Z,14.82
2023-05-14T21:27:33.773Z,14.80
2023-05-14T21:30:01.600Z,14.80
2023-05-14T21:32:29.594Z,14.80
2023-05-14T21:34:57.650Z,14.80
2023-05-14T21:37:25.557Z,14.70
2023-05-14T21:39:53.321Z,14.70
2023-05-14T21:42:21.638Z,14.60
2023-05-14T21:44:49.451Z,14.50
2023-05-14T21:47:17.478Z,14.40
2023-05-14T21:49:45.440Z,14.36
2023-05-14T21:52:13.408Z,14.30
2023-05-14T21:54:43.698Z,14.30
2023-05-14T21:57:11.566Z,14.30
2023-05-14T21:59:39.406Z,14.26
2023-05-14T22:02:08.043Z,14.20
2023-05-14T22:04:36.442Z,14.20
2023-05-14T22:07:04.867Z,14.20
2023-05-14T22:09:32.752Z,14.10
2023-05-14T22:12:00.644Z,14.10
2023-05-14T22:14:28.612Z,14.10
2023-05-14T22:16:56.802Z,14.10
2023-05-14T22:19:25.992Z,14.10
2023-05-14T22:21:54.429Z,14.10
2023-05-14T22:24:22.530Z,14.10
2023-05-14T22:26:50.816Z,14.10
2023-05-14T22:29:18.684Z,14.02
2023-05-14T22:31:46.531Z,14.00
2023-05-14T22:34:14.531Z,14.00
2023-05-14T22:36:42.515Z,13.90
2023-05-14T22:39:11.400Z,13.90
2023-05-14T22:41:41.213Z,13.80
2023-05-14T22:44:09.046Z,13.78
2023-05-14T22:46:36.974Z,13.78
2023-05-14T22:49:04.750Z,13.80
2023-05-14T22:51:32.880Z,13.80
2023-05-14T22:54:00.689Z,13.70
2023-05-14T22:56:28.576Z,13.70
2023-05-14T22:59:00.363Z,13.66
2023-05-14T23:01:30.228Z,13.60
2023-05-14T23:03:58.099Z,13.60
2023-05-14T23:06:26.260Z,13.60
2023-05-14T23:08:54.168Z,13.70
2023-05-14T23:11:22.637Z,13.70
2023-05-14T23:13:50.821Z,13.62
2023-05-14T23:16:18.958Z,13.60
2023-05-14T23:18:47.015Z,13.60
2023-05-14T23:21:15.264Z,13.60
2023-05-14T23:23:43.152Z,13.50
2023-05-14T23:26:11.096Z,13.56
2023-05-14T23:28:38.853Z,13.58
2023-05-14T23:31:06.676Z,13.58
2023-05-14T23:33:34.483Z,13.60
2023-05-14T23:36:03.722Z,13.64
2023-05-14T23:38:31.979Z,13.60
2023-05-14T23:40:59.790Z,13.60
2023-05-14T23:43:27.607Z,13.60
2023-05-14T23:45:55.899Z,13.60
2023-05-14T23:48:24.155Z,13.60
2023-05-14T23:50:51.961Z,13.60
2023-05-14T23:53:19.748Z,13.68
2023-05-14T23:55:47.642Z,13.70
2023-05-14T23:58:15.508Z,13.70
